Terminal Aerodrome Forecast
Issued by NWS

Home | Current Version | Previous Version | Graphics & Text | Print | Product List | Glossary On
Versions: 1 2 3 4 5 6 7 8 9 10 11 12 13 14 15 16 17
000
FTUS43 KMPX 191743
TAFRWF
TAF
KRWF 191743Z 1918/2018 12012G18KT 6SM -TSRA OVC020CB
     FM192000 12012G18KT P6SM BKN090
     FM200200 12007KT P6SM VCTS BKN050CB OVC100
     FM200700 34005KT P6SM SCT250=

USA.gov is the U.S. government's official web portal to all federal, state and local government web resources and services.